San Antonio, Texas
Current Conditions -  °F | °C
As of 11:58 PM on Wednesday 22 Oct 2014 (Local Time) from KSKF Reporting Station
Overcast Overcast  
Wind Chill: 74°   Ceiling: 14000
Heat Index: 74°   Visibility: 10mi
Dew Point: 57°   Wind: 6mph
Humidity: 55%   Direction: 110°ESE
Pressure: 30.07"   Gusts: NA
Location:  29.42°N, 98.49°W
Report Text: KSKF 230458Z AUTO 11005KT 10SM BKN140 OVC160 23/14 A3007 RMK AO2 SLP176 T02340138 $
Loading
Personal Weather Stations






























Interactive Weather Map
Tropical Storm Tracking
New forecast layout! Learn more

10-Day Weather Forecast

Advertisements
Track Severe Weather on mobile